createdAt,value
2023-05-14T00:02:34.305Z,68.21
2023-05-14T00:07:37.308Z,68.69
2023-05-14T00:12:54.257Z,69.19
2023-05-14T00:18:21.434Z,68.80
2023-05-14T00:24:11.092Z,69.39
2023-05-14T00:29:32.438Z,69.94
2023-05-14T00:34:48.193Z,70.26
2023-05-14T00:39:55.435Z,69.76
2023-05-14T00:45:03.760Z,67.65
2023-05-14T00:50:21.561Z,69.68
2023-05-14T00:55:33.053Z,70.70
2023-05-14T01:00:36.256Z,70.30
2023-05-14T01:06:00.912Z,70.52
2023-05-14T01:11:52.835Z,69.69
2023-05-14T01:17:11.826Z,70.86
2023-05-14T01:22:19.764Z,71.56
2023-05-14T01:27:23.488Z,72.29
2023-05-14T01:32:35.841Z,71.96
2023-05-14T01:37:49.705Z,69.47
2023-05-14T01:43:12.407Z,68.78
2023-05-14T01:48:22.753Z,69.79
2023-05-14T01:53:25.275Z,70.77
2023-05-14T01:58:38.021Z,69.06
2023-05-14T02:03:40.295Z,71.06
2023-05-14T02:08:51.770Z,69.94
2023-05-14T02:13:54.511Z,71.74
2023-05-14T02:18:59.844Z,72.75
2023-05-14T02:24:02.293Z,72.11
2023-05-14T02:29:08.559Z,73.25
2023-05-14T02:34:42.775Z,71.25
2023-05-14T02:40:37.933Z,71.04
2023-05-14T02:46:00.502Z,71.88
2023-05-14T02:51:26.863Z,73.02
2023-05-14T02:56:44.694Z,71.44
2023-05-14T03:02:19.584Z,71.93
2023-05-14T03:07:39.291Z,72.62
2023-05-14T03:13:20.860Z,73.82
2023-05-14T03:18:41.386Z,74.12
2023-05-14T03:23:53.769Z,73.19
2023-05-14T03:28:58.622Z,73.62
2023-05-14T03:34:01.376Z,73.20
2023-05-14T03:39:23.865Z,72.23
2023-05-14T03:44:54.676Z,72.86
2023-05-14T03:50:11.920Z,71.61
2023-05-14T03:55:26.400Z,72.40
2023-05-14T04:00:57.716Z,72.70
2023-05-14T04:06:05.197Z,72.79
2023-05-14T04:11:38.995Z,72.24
2023-05-14T04:17:20.744Z,71.54
2023-05-14T04:23:07.854Z,72.43
2023-05-14T04:28:55.616Z,71.80
2023-05-14T04:34:32.260Z,72.00
2023-05-14T04:39:47.219Z,71.67
2023-05-14T04:45:08.645Z,72.77
2023-05-14T04:50:46.972Z,72.17
2023-05-14T04:55:49.213Z,71.92
2023-05-14T05:01:03.685Z,72.77
2023-05-14T05:06:07.842Z,73.54
2023-05-14T05:11:13.292Z,73.56
2023-05-14T05:16:15.800Z,73.05
2023-05-14T05:21:18.726Z,72.36
2023-05-14T05:26:26.838Z,72.84
2023-05-14T05:31:39.456Z,71.84
2023-05-14T05:36:41.381Z,71.97
2023-05-14T05:41:49.328Z,70.92
2023-05-14T05:46:58.165Z,70.21
2023-05-14T05:52:06.483Z,69.43
2023-05-14T05:57:18.848Z,68.51
2023-05-14T06:02:21.227Z,67.55
2023-05-14T06:07:25.828Z,67.02
2023-05-14T06:12:40.679Z,66.43
2023-05-14T06:17:43.034Z,65.96
2023-05-14T06:22:48.172Z,64.76
2023-05-14T06:27:50.474Z,63.77
2023-05-14T06:32:53.235Z,63.59
2023-05-14T06:37:55.364Z,62.75
2023-05-14T06:42:58.264Z,62.46
2023-05-14T06:48:10.660Z,62.33
2023-05-14T06:53:16.814Z,61.36
2023-05-14T06:58:34.506Z,60.91
2023-05-14T07:03:36.731Z,61.26
2023-05-14T07:08:38.854Z,60.71
2023-05-14T07:13:41.928Z,60.25
2023-05-14T07:18:45.578Z,60.07
2023-05-14T07:23:47.977Z,59.14
2023-05-14T07:28:50.533Z,59.59
2023-05-14T07:34:11.820Z,60.16
2023-05-14T07:39:13.909Z,60.05
2023-05-14T07:44:16.422Z,59.62
2023-05-14T07:49:18.830Z,59.73
2023-05-14T07:54:26.744Z,59.76
2023-05-14T07:59:48.781Z,57.96
2023-05-14T08:04:52.239Z,56.81
2023-05-14T08:09:54.195Z,56.67
2023-05-14T08:14:57.057Z,55.16
2023-05-14T08:19:59.063Z,54.60
2023-05-14T08:25:03.582Z,55.22
2023-05-14T08:30:07.518Z,54.56
2023-05-14T08:35:19.468Z,53.83
2023-05-14T08:40:22.224Z,54.24
2023-05-14T08:45:34.519Z,54.01
2023-05-14T08:50:49.278Z,54.08
2023-05-14T08:55:54.850Z,53.63
2023-05-14T09:00:57.509Z,51.80
2023-05-14T09:06:04.948Z,52.73
2023-05-14T09:11:07.200Z,52.83
2023-05-14T09:16:10.060Z,52.64
2023-05-14T09:21:16.127Z,51.39
2023-05-14T09:26:26.252Z,51.14
2023-05-14T09:31:33.269Z,51.02
2023-05-14T09:36:35.996Z,50.92
2023-05-14T09:41:43.193Z,50.32
2023-05-14T09:46:50.875Z,49.86
2023-05-14T09:51:58.224Z,49.23
2023-05-14T09:57:01.032Z,49.58
2023-05-14T10:02:22.278Z,49.27
2023-05-14T10:07:58.336Z,47.90
2023-05-14T10:13:05.691Z,48.16
2023-05-14T10:18:12.574Z,46.17
2023-05-14T10:23:17.977Z,44.11
2023-05-14T10:28:29.910Z,43.86
2023-05-14T10:33:47.191Z,43.96
2023-05-14T10:38:57.322Z,43.07
2023-05-14T10:43:59.718Z,42.59
2023-05-14T10:49:03.150Z,41.02
2023-05-14T10:54:08.931Z,39.52
2023-05-14T10:59:12.320Z,40.89
2023-05-14T11:04:24.188Z,41.55
2023-05-14T11:09:29.356Z,41.23
2023-05-14T11:14:31.863Z,40.20
2023-05-14T11:19:34.412Z,39.98
2023-05-14T11:24:36.551Z,38.67
2023-05-14T11:29:48.900Z,38.28
2023-05-14T11:34:54.117Z,37.53
2023-05-14T11:40:00.112Z,37.43
2023-05-14T11:45:02.847Z,38.04
2023-05-14T11:50:09.762Z,37.63
2023-05-14T11:55:18.489Z,37.50
2023-05-14T12:00:25.227Z,36.72
2023-05-14T12:05:30.040Z,36.00
2023-05-14T12:10:42.521Z,35.61
2023-05-14T12:15:47.110Z,36.58
2023-05-14T12:20:51.255Z,36.91
2023-05-14T12:25:53.266Z,37.29
2023-05-14T12:30:57.606Z,37.69
2023-05-14T12:41:09.044Z,36.85
2023-05-14T12:46:11.071Z,36.46
2023-05-14T12:51:13.904Z,37.09
2023-05-14T12:56:16.540Z,37.13
2023-05-14T13:01:41.195Z,37.76
2023-05-14T13:06:53.400Z,37.57
2023-05-14T13:12:03.589Z,37.06
2023-05-14T13:17:08.747Z,37.71
2023-05-14T13:22:14.476Z,37.71
2023-05-14T13:27:16.559Z,37.87
2023-05-14T13:32:19.046Z,37.56
2023-05-14T13:37:21.153Z,37.75
2023-05-14T13:42:23.773Z,38.63
2023-05-14T13:47:28.968Z,38.15
2023-05-14T13:52:34.624Z,38.43
2023-05-14T13:57:37.637Z,38.58
2023-05-14T14:02:42.611Z,38.64
2023-05-14T14:07:50.465Z,38.53
2023-05-14T14:12:55.821Z,38.66
2023-05-14T14:17:57.791Z,39.12
2023-05-14T14:23:00.189Z,39.78
2023-05-14T14:28:05.492Z,40.04
2023-05-14T14:33:07.834Z,40.22
2023-05-14T14:38:10.410Z,40.34
2023-05-14T14:43:21.741Z,40.33
2023-05-14T14:48:37.451Z,40.05
2023-05-14T14:53:40.801Z,39.73
2023-05-14T14:58:42.952Z,39.49
2023-05-14T15:03:45.944Z,39.45
2023-05-14T15:08:48.364Z,40.01
2023-05-14T15:13:50.761Z,40.35
2023-05-14T15:18:58.855Z,40.31
2023-05-14T15:24:04.581Z,40.36
2023-05-14T15:29:06.543Z,40.45
2023-05-14T15:34:11.576Z,40.80
2023-05-14T15:39:13.976Z,41.41
2023-05-14T15:44:19.532Z,42.21
2023-05-14T15:49:23.903Z,42.61
2023-05-14T15:54:27.719Z,43.05
2023-05-14T15:59:30.695Z,43.41
2023-05-14T16:04:32.646Z,44.05
2023-05-14T16:09:35.155Z,44.23
2023-05-14T16:14:38.307Z,45.22
2023-05-14T16:19:41.277Z,45.84
2023-05-14T16:24:44.887Z,46.84
2023-05-14T16:29:53.084Z,47.60
2023-05-14T16:34:58.222Z,47.81
2023-05-14T16:40:00.301Z,48.31
2023-05-14T16:45:02.892Z,48.97
2023-05-14T16:50:06.158Z,50.35
2023-05-14T16:55:09.300Z,51.73
2023-05-14T17:00:12.184Z,53.93
2023-05-14T17:05:15.008Z,54.68
2023-05-14T17:10:26.812Z,56.09
2023-05-14T17:15:29.573Z,56.78
2023-05-14T17:20:31.606Z,57.85
2023-05-14T17:25:33.847Z,58.86
2023-05-14T17:30:35.814Z,58.57
2023-05-14T17:35:38.057Z,57.39
2023-05-14T17:40:40.918Z,58.77
2023-05-14T17:45:53.884Z,59.27
2023-05-14T17:51:00.016Z,61.06
2023-05-14T17:56:02.914Z,66.72
2023-05-14T18:01:06.183Z,67.07
2023-05-14T18:06:08.751Z,66.57
2023-05-14T18:11:11.027Z,66.75
2023-05-14T18:16:13.494Z,69.45
2023-05-14T18:21:16.078Z,70.42
2023-05-14T18:26:22.241Z,67.30
2023-05-14T18:31:27.975Z,70.52
2023-05-14T18:36:30.629Z,66.08
2023-05-14T18:41:32.797Z,66.20
2023-05-14T18:46:34.812Z,69.13
2023-05-14T18:51:36.803Z,69.98
2023-05-14T18:56:41.798Z,71.63
2023-05-14T19:01:44.385Z,71.94
2023-05-14T19:06:47.072Z,70.39
2023-05-14T19:11:49.235Z,69.95
2023-05-14T19:17:02.690Z,71.41
2023-05-14T19:22:05.309Z,71.44
2023-05-14T19:27:12.936Z,73.62
2023-05-14T19:32:17.958Z,72.40
2023-05-14T19:37:20.414Z,73.50
2023-05-14T19:42:24.937Z,73.33
2023-05-14T19:47:33.388Z,74.57
2023-05-14T19:52:42.806Z,75.01
2023-05-14T19:57:50.912Z,76.49
2023-05-14T20:03:00.002Z,76.85
2023-05-14T20:08:06.663Z,77.44
2023-05-14T20:13:08.733Z,77.06
2023-05-14T20:18:11.245Z,78.33
2023-05-14T20:23:13.112Z,78.22
2023-05-14T20:28:16.324Z,78.45
2023-05-14T20:33:18.412Z,80.47
2023-05-14T20:38:21.848Z,81.39
2023-05-14T20:43:24.167Z,82.04
2023-05-14T20:48:26.455Z,82.45
2023-05-14T20:53:28.844Z,83.69
2023-05-14T20:58:31.318Z,84.80
2023-05-14T21:03:34.700Z,85.47
2023-05-14T21:09:04.040Z,85.72
2023-05-14T21:14:16.998Z,86.81
2023-05-14T21:19:19.437Z,85.01
2023-05-14T21:24:24.149Z,85.27
2023-05-14T21:29:26.476Z,84.81
2023-05-14T21:34:32.095Z,84.81
2023-05-14T21:39:40.049Z,85.02
2023-05-14T21:44:43.070Z,86.58
2023-05-14T21:49:53.906Z,87.40
2023-05-14T21:54:56.196Z,86.91
2023-05-14T22:00:01.431Z,86.79
2023-05-14T22:05:09.645Z,86.56
2023-05-14T22:10:13.584Z,86.44
2023-05-14T22:15:16.107Z,86.95
2023-05-14T22:20:25.775Z,87.00
2023-05-14T22:25:31.229Z,87.11
2023-05-14T22:30:33.461Z,87.66
2023-05-14T22:35:47.777Z,87.64
2023-05-14T22:41:03.340Z,88.55
2023-05-14T22:46:06.242Z,88.44
2023-05-14T22:51:18.080Z,88.08
2023-05-14T22:56:38.271Z,88.21
2023-05-14T23:01:48.720Z,88.36
2023-05-14T23:06:51.028Z,88.89
2023-05-14T23:11:56.690Z,88.83
2023-05-14T23:17:08.890Z,88.28
2023-05-14T23:22:14.540Z,86.88
2023-05-14T23:27:37.156Z,87.96
2023-05-14T23:32:39.777Z,87.90
2023-05-14T23:37:47.410Z,88.31
2023-05-14T23:42:57.360Z,88.81
2023-05-14T23:48:23.177Z,89.20
2023-05-14T23:53:26.159Z,89.26
2023-05-14T23:58:31.255Z,89.47
